createdAt,value
2017-10-19T00:01:01.602Z,13.56
2017-10-19T00:02:08.913Z,13.58
2017-10-19T00:03:14.715Z,13.50
2017-10-19T00:04:22.014Z,13.47
2017-10-19T00:05:28.587Z,13.46
2017-10-19T00:06:35.170Z,13.43
2017-10-19T00:07:40.950Z,13.42
2017-10-19T00:08:46.545Z,13.40
2017-10-19T00:09:52.326Z,13.39
2017-10-19T00:10:58.152Z,13.40
2017-10-19T00:12:03.952Z,13.41
2017-10-19T00:13:09.737Z,13.39
2017-10-19T00:14:15.531Z,13.40
2017-10-19T00:15:22.093Z,13.39
2017-10-19T00:16:28.681Z,13.42
2017-10-19T00:17:34.464Z,13.40
2017-10-19T00:18:40.239Z,13.39
2017-10-19T00:19:46.037Z,13.34
2017-10-19T00:20:51.832Z,13.33
2017-10-19T00:21:57.666Z,13.34
2017-10-19T00:23:04.216Z,13.35
2017-10-19T00:24:10.769Z,13.35
2017-10-19T00:25:17.320Z,13.35
2017-10-19T00:26:24.658Z,13.38
2017-10-19T00:27:30.459Z,13.36
2017-10-19T00:28:37.008Z,13.32
2017-10-19T00:29:42.799Z,13.29
2017-10-19T00:30:48.576Z,13.29
2017-10-19T00:31:54.349Z,13.27
2017-10-19T00:33:00.928Z,13.24
2017-10-19T00:34:06.727Z,13.23
2017-10-19T00:35:12.504Z,13.22
2017-10-19T00:36:18.301Z,13.24
2017-10-19T00:37:24.087Z,13.24
2017-10-19T00:38:30.667Z,13.22
2017-10-19T00:39:36.457Z,13.16
2017-10-19T00:40:43.009Z,13.16
2017-10-19T00:41:48.808Z,13.14
2017-10-19T00:42:54.596Z,13.15
2017-10-19T00:44:00.406Z,13.15
2017-10-19T00:45:06.196Z,13.14
2017-10-19T00:46:12.026Z,13.12
2017-10-19T00:47:17.810Z,13.12
2017-10-19T00:48:24.351Z,13.12
2017-10-19T00:49:30.932Z,13.08
2017-10-19T00:50:36.727Z,13.08
2017-10-19T00:51:42.507Z,13.05
2017-10-19T00:52:49.060Z,13.07
2017-10-19T00:53:55.616Z,13.07
2017-10-19T00:55:02.195Z,13.04
2017-10-19T00:56:07.307Z,13.01
2017-10-19T00:57:13.533Z,12.99
2017-10-19T00:58:19.338Z,13.01
2017-10-19T00:59:24.427Z,12.97
2017-10-19T01:00:30.680Z,12.98
2017-10-19T01:01:37.368Z,13.01
2017-10-19T01:02:43.155Z,12.98
2017-10-19T01:03:48.954Z,12.98
2017-10-19T01:04:54.773Z,12.98
2017-10-19T01:06:01.502Z,12.97
2017-10-19T01:07:08.840Z,12.96
2017-10-19T01:08:14.649Z,12.97
2017-10-19T01:09:20.428Z,12.99
2017-10-19T01:10:26.238Z,12.99
2017-10-19T01:11:32.829Z,12.99
2017-10-19T01:12:38.624Z,12.98
2017-10-19T01:13:45.934Z,12.97
2017-10-19T01:14:51.732Z,12.95
2017-10-19T01:15:58.351Z,12.93
2017-10-19T01:17:04.176Z,12.91
2017-10-19T01:18:10.725Z,12.90
2017-10-19T01:19:17.295Z,12.92
2017-10-19T01:20:23.504Z,12.90
2017-10-19T01:21:28.951Z,12.89
2017-10-19T01:22:34.446Z,12.88
2017-10-19T01:23:39.712Z,12.89
2017-10-19T01:24:45.179Z,12.88
2017-10-19T01:25:51.402Z,12.88
2017-10-19T01:26:56.493Z,12.86
2017-10-19T01:28:01.987Z,12.90
2017-10-19T01:29:08.571Z,12.91
2017-10-19T01:30:13.686Z,12.87
2017-10-19T01:31:19.902Z,12.84
2017-10-19T01:32:25.389Z,12.82
2017-10-19T01:33:30.876Z,12.81
2017-10-19T01:34:36.749Z,12.80
2017-10-19T01:35:43.332Z,12.76
2017-10-19T01:36:48.460Z,12.73
2017-10-19T01:37:53.927Z,12.73
2017-10-19T01:38:59.080Z,12.76
2017-10-19T01:40:04.575Z,12.76
2017-10-19T01:41:10.078Z,12.76
2017-10-19T01:42:15.961Z,12.79
2017-10-19T01:43:21.167Z,12.79
2017-10-19T01:44:26.126Z,12.82
2017-10-19T01:45:31.237Z,12.81
2017-10-19T01:46:36.699Z,12.82
2017-10-19T01:47:42.920Z,12.84
2017-10-19T01:48:48.721Z,12.82
2017-10-19T01:50:01.010Z,12.81
2017-10-19T01:51:06.697Z,12.80
2017-10-19T01:52:12.166Z,12.78
2017-10-19T01:53:18.780Z,12.82
2017-10-19T01:54:24.571Z,12.84
2017-10-19T01:55:30.399Z,12.83
2017-10-19T01:56:36.192Z,12.80
2017-10-19T01:57:42.001Z,12.80
2017-10-19T01:58:47.793Z,12.80
2017-10-19T01:59:53.580Z,12.81
2017-10-19T02:00:59.400Z,12.81
2017-10-19T02:02:05.195Z,12.76
2017-10-19T02:03:10.999Z,12.79
2017-10-19T02:04:16.454Z,12.80
2017-10-19T02:05:23.039Z,12.77
2017-10-19T02:06:28.856Z,12.72
2017-10-19T02:07:35.435Z,12.71
2017-10-19T02:08:41.242Z,12.69
2017-10-19T02:09:47.064Z,12.70
2017-10-19T02:10:52.847Z,12.69
2017-10-19T02:11:59.453Z,12.69
2017-10-19T02:13:05.392Z,12.65
2017-10-19T02:14:11.179Z,12.63
2017-10-19T02:15:16.969Z,12.61
2017-10-19T02:16:22.775Z,12.58
2017-10-19T02:17:29.392Z,12.54
2017-10-19T02:18:35.208Z,12.53
2017-10-19T02:19:41.001Z,12.54
2017-10-19T02:20:46.791Z,12.51
2017-10-19T02:21:52.576Z,12.49
2017-10-19T02:22:58.410Z,12.52
2017-10-19T02:24:04.190Z,12.44
2017-10-19T02:25:10.001Z,12.42
2017-10-19T02:26:15.786Z,12.41
2017-10-19T02:27:21.564Z,12.38
2017-10-19T02:28:27.393Z,12.36
2017-10-19T02:29:33.180Z,12.39
2017-10-19T02:30:38.969Z,12.38
2017-10-19T02:31:45.528Z,12.36
2017-10-19T02:32:52.088Z,12.37
2017-10-19T02:33:58.720Z,12.39
2017-10-19T02:35:04.501Z,12.35
2017-10-19T02:36:10.365Z,12.41
2017-10-19T02:37:16.156Z,12.40
2017-10-19T02:38:22.719Z,12.40
2017-10-19T02:39:30.037Z,12.37
2017-10-19T02:40:35.633Z,12.37
2017-10-19T02:41:42.919Z,12.37
2017-10-19T02:42:48.711Z,12.34
2017-10-19T02:43:54.500Z,12.32
2017-10-19T02:45:01.083Z,12.30
2017-10-19T02:46:06.867Z,12.30
2017-10-19T02:47:12.648Z,12.30
2017-10-19T02:48:19.204Z,12.33
2017-10-19T02:49:25.004Z,12.34
2017-10-19T02:50:30.464Z,12.39
2017-10-19T02:51:37.011Z,12.41
2017-10-19T02:52:42.791Z,12.40
2017-10-19T02:53:49.371Z,12.35
2017-10-19T02:54:55.931Z,12.36
2017-10-19T02:56:01.803Z,12.37
2017-10-19T02:57:06.912Z,12.38
2017-10-19T02:58:12.703Z,12.35
2017-10-19T02:59:18.517Z,12.36
2017-10-19T03:00:24.338Z,12.34
2017-10-19T03:01:30.139Z,12.34
2017-10-19T03:02:35.927Z,12.32
2017-10-19T03:03:41.719Z,12.34
2017-10-19T03:04:47.500Z,12.36
2017-10-19T03:05:53.712Z,12.38
2017-10-19T03:07:00.302Z,12.36
2017-10-19T03:08:06.840Z,12.34
2017-10-19T03:09:12.731Z,12.38
2017-10-19T03:10:18.160Z,12.39
2017-10-19T03:11:23.943Z,12.39
2017-10-19T03:12:29.774Z,12.39
2017-10-19T03:13:35.234Z,12.40
2017-10-19T03:14:41.011Z,12.39
2017-10-19T03:15:47.570Z,12.39
2017-10-19T03:16:54.120Z,12.38
2017-10-19T03:18:00.716Z,12.37
2017-10-19T03:19:06.496Z,12.30
2017-10-19T03:20:12.294Z,12.29
2017-10-19T03:21:18.120Z,12.25
2017-10-19T03:22:24.811Z,12.29
2017-10-19T03:23:30.647Z,12.31
2017-10-19T03:24:36.431Z,12.32
2017-10-19T03:25:42.222Z,12.35
2017-10-19T03:26:48.001Z,12.35
2017-10-19T03:27:53.777Z,12.34
2017-10-19T03:28:59.607Z,12.32
2017-10-19T03:30:05.425Z,12.29
2017-10-19T03:31:11.219Z,12.32
2017-10-19T03:32:17.776Z,12.33
2017-10-19T03:33:24.331Z,12.30
2017-10-19T03:34:30.912Z,12.32
2017-10-19T03:35:36.697Z,12.31
2017-10-19T03:36:42.480Z,12.29
2017-10-19T03:37:49.031Z,12.34
2017-10-19T03:38:55.243Z,12.33
2017-10-19T03:40:01.059Z,12.31
2017-10-19T03:41:06.854Z,12.31
2017-10-19T03:42:12.627Z,12.32
2017-10-19T03:43:18.427Z,12.33
2017-10-19T03:44:24.215Z,12.32
2017-10-19T03:45:30.077Z,12.30
2017-10-19T03:46:35.887Z,12.30
2017-10-19T03:47:42.440Z,12.27
2017-10-19T03:48:48.219Z,12.32
2017-10-19T03:49:54.003Z,12.32
2017-10-19T03:50:59.901Z,12.30
2017-10-19T03:52:05.361Z,12.28
2017-10-19T03:53:11.152Z,12.25
2017-10-19T03:54:17.725Z,12.25
2017-10-19T03:55:24.276Z,12.23
2017-10-19T03:56:30.876Z,12.23
2017-10-19T03:57:36.683Z,12.25
2017-10-19T03:58:44.185Z,12.24
2017-10-19T03:59:49.988Z,12.23
2017-10-19T04:00:55.790Z,12.21
2017-10-19T04:02:01.600Z,12.21
2017-10-19T04:03:08.153Z,12.19
2017-10-19T04:04:13.953Z,12.18
2017-10-19T04:05:19.737Z,12.19
2017-10-19T04:06:27.367Z,12.22
2017-10-19T04:07:33.508Z,12.18
2017-10-19T04:08:39.299Z,12.17
2017-10-19T04:09:45.088Z,12.17
2017-10-19T04:10:50.873Z,12.17
2017-10-19T04:11:56.663Z,12.18
2017-10-19T04:13:02.484Z,12.19
2017-10-19T04:14:09.054Z,12.20
2017-10-19T04:15:14.856Z,12.16
2017-10-19T04:16:20.642Z,12.14
2017-10-19T04:17:26.426Z,12.13
2017-10-19T04:18:32.247Z,12.12
2017-10-19T04:19:38.048Z,12.12
2017-10-19T04:20:43.836Z,12.13
2017-10-19T04:21:49.644Z,12.15
2017-10-19T04:22:55.438Z,12.16
2017-10-19T04:24:01.269Z,12.17
2017-10-19T04:25:07.049Z,12.18
2017-10-19T04:26:12.889Z,12.15
2017-10-19T04:27:18.680Z,12.16
2017-10-19T04:28:24.464Z,12.17
2017-10-19T04:29:30.282Z,12.17
2017-10-19T04:30:36.070Z,12.15
2017-10-19T04:31:42.638Z,12.17
2017-10-19T04:32:49.009Z,12.14
2017-10-19T04:33:54.828Z,12.11
2017-10-19T04:35:00.642Z,12.11
2017-10-19T04:36:06.432Z,12.10
2017-10-19T04:37:12.979Z,12.10
2017-10-19T04:38:19.531Z,12.12
2017-10-19T04:39:25.511Z,12.12
2017-10-19T04:40:31.331Z,12.11
2017-10-19T04:41:37.892Z,12.13
2017-10-19T04:42:44.455Z,12.10
2017-10-19T04:43:51.015Z,12.12
2017-10-19T04:44:57.560Z,12.13
2017-10-19T04:46:03.371Z,12.13
2017-10-19T04:47:10.004Z,12.13
2017-10-19T04:48:15.796Z,12.14
2017-10-19T04:49:21.441Z,12.15
2017-10-19T04:50:28.003Z,12.13
2017-10-19T04:51:33.664Z,12.11
2017-10-19T04:52:40.232Z,12.12
2017-10-19T04:53:46.033Z,12.11
2017-10-19T04:54:51.827Z,12.12
2017-10-19T04:55:57.623Z,12.10
2017-10-19T04:57:03.467Z,12.09
2017-10-19T04:58:09.514Z,12.12
2017-10-19T04:59:15.117Z,12.10
2017-10-19T05:00:20.908Z,12.09
2017-10-19T05:01:26.700Z,12.11
2017-10-19T05:02:32.517Z,12.10
2017-10-19T05:03:39.083Z,12.09
2017-10-19T05:04:45.039Z,12.07
2017-10-19T05:05:50.828Z,12.06
2017-10-19T05:06:56.644Z,12.08
2017-10-19T05:08:02.332Z,12.08
2017-10-19T05:09:08.136Z,12.08
2017-10-19T05:10:13.951Z,12.09
2017-10-19T05:11:19.404Z,12.08
2017-10-19T05:12:25.206Z,12.08
2017-10-19T05:13:31.454Z,12.09
2017-10-19T05:14:38.018Z,12.11
2017-10-19T05:15:44.581Z,12.13
2017-10-19T05:16:51.145Z,12.11
2017-10-19T05:17:57.712Z,12.09
2017-10-19T05:19:03.519Z,12.09
2017-10-19T05:20:09.323Z,12.11
2017-10-19T05:21:15.105Z,12.10
2017-10-19T05:22:20.896Z,12.11
2017-10-19T05:23:26.696Z,12.09
2017-10-19T05:24:32.929Z,12.09
2017-10-19T05:25:38.712Z,12.10
2017-10-19T05:26:44.530Z,12.09
2017-10-19T05:27:51.128Z,12.08
2017-10-19T05:28:56.907Z,12.07
2017-10-19T05:30:02.829Z,12.05
2017-10-19T05:31:08.785Z,12.04
2017-10-19T05:32:14.668Z,12.05
2017-10-19T05:33:20.567Z,12.04
2017-10-19T05:34:30.965Z,12.06
2017-10-19T05:35:36.861Z,12.04
2017-10-19T05:36:42.688Z,12.05
2017-10-19T05:37:48.712Z,12.05
2017-10-19T05:38:55.428Z,12.04
2017-10-19T05:40:01.312Z,12.05
2017-10-19T05:41:08.550Z,12.08
2017-10-19T05:42:14.376Z,12.08
2017-10-19T05:43:20.243Z,12.08
2017-10-19T05:44:26.486Z,12.11
2017-10-19T05:45:32.346Z,12.11
2017-10-19T05:46:38.187Z,12.09
2017-10-19T05:47:43.991Z,12.07
2017-10-19T05:48:49.779Z,12.09
2017-10-19T05:49:55.784Z,12.08
2017-10-19T05:51:01.573Z,12.10
2017-10-19T05:52:08.229Z,12.09
2017-10-19T05:53:14.008Z,12.08
2017-10-19T05:54:20.288Z,12.11
2017-10-19T05:55:26.167Z,12.09
2017-10-19T05:56:32.062Z,12.14
2017-10-19T05:57:38.033Z,12.13
2017-10-19T05:58:43.896Z,12.16
2017-10-19T05:59:49.773Z,12.18
2017-10-19T06:00:55.748Z,12.18
2017-10-19T06:02:01.649Z,12.19
2017-10-19T06:03:07.568Z,12.14
2017-10-19T06:04:13.544Z,12.17
2017-10-19T06:05:19.530Z,12.19
2017-10-19T06:06:26.228Z,12.16
2017-10-19T06:07:32.125Z,12.16
2017-10-19T06:08:38.796Z,12.21
2017-10-19T06:09:45.349Z,12.19
2017-10-19T06:10:52.147Z,12.22
2017-10-19T06:11:57.940Z,12.21
2017-10-19T06:13:04.496Z,12.20
2017-10-19T06:14:10.308Z,12.22
2017-10-19T06:15:16.086Z,12.27
2017-10-19T06:16:21.864Z,12.24
2017-10-19T06:17:35.050Z,12.25
2017-10-19T06:18:40.836Z,12.26
2017-10-19T06:20:01.148Z,12.30
2017-10-19T06:21:07.497Z,12.32
2017-10-19T06:22:13.292Z,12.34
2017-10-19T06:23:19.721Z,12.36
2017-10-19T06:24:26.641Z,12.36
2017-10-19T06:25:32.681Z,12.37
2017-10-19T06:26:38.513Z,12.40
2017-10-19T06:27:44.318Z,12.39
2017-10-19T06:28:50.142Z,12.40
2017-10-19T06:29:55.914Z,12.42
2017-10-19T06:31:01.724Z,12.43
2017-10-19T06:32:07.511Z,12.39
2017-10-19T06:33:14.108Z,12.40
2017-10-19T06:34:19.993Z,12.40
2017-10-19T06:35:25.793Z,12.47
2017-10-19T06:36:31.676Z,12.51
2017-10-19T06:37:37.461Z,12.53
2017-10-19T06:38:43.253Z,12.52
2017-10-19T06:39:50.560Z,12.54
2017-10-19T06:40:57.114Z,12.51
2017-10-19T06:42:03.696Z,12.54
2017-10-19T06:43:10.046Z,12.55
2017-10-19T06:44:16.604Z,12.59
2017-10-19T06:45:23.170Z,12.58
2017-10-19T06:46:29.734Z,12.62
2017-10-19T06:47:35.544Z,12.66
2017-10-19T06:48:41.338Z,12.69
2017-10-19T06:49:47.128Z,12.68
2017-10-19T06:50:52.911Z,12.69
2017-10-19T06:51:58.766Z,12.72
2017-10-19T06:53:04.588Z,12.73
2017-10-19T06:54:10.384Z,12.68
2017-10-19T06:55:16.177Z,12.70
2017-10-19T06:56:22.737Z,12.74
2017-10-19T06:57:28.516Z,12.76
2017-10-19T06:58:34.330Z,12.80
2017-10-19T06:59:40.107Z,12.83
2017-10-19T07:00:45.440Z,12.82
2017-10-19T07:01:51.226Z,12.84
2017-10-19T07:02:57.793Z,12.84
2017-10-19T07:04:04.370Z,12.84
2017-10-19T07:05:10.167Z,12.86
2017-10-19T07:06:15.978Z,12.88
2017-10-19T07:07:21.789Z,12.91
2017-10-19T07:08:27.574Z,12.92
2017-10-19T07:09:33.397Z,12.90
2017-10-19T07:10:39.202Z,12.93
2017-10-19T07:11:45.769Z,13.03
2017-10-19T07:12:52.391Z,12.99
2017-10-19T07:13:58.204Z,13.03
2017-10-19T07:15:04.028Z,13.09
2017-10-19T07:16:09.808Z,13.12
2017-10-19T07:17:15.606Z,13.12
2017-10-19T07:18:21.384Z,13.16
2017-10-19T07:19:27.200Z,13.24
2017-10-19T07:20:33.020Z,13.30
2017-10-19T07:21:39.564Z,13.32
2017-10-19T07:22:45.346Z,13.41
2017-10-19T07:23:51.136Z,13.46
2017-10-19T07:24:57.567Z,13.50
2017-10-19T07:26:03.392Z,13.52
2017-10-19T07:27:09.183Z,13.55
2017-10-19T07:28:14.363Z,13.60
2017-10-19T07:29:20.155Z,13.57
2017-10-19T07:30:25.264Z,13.54
2017-10-19T07:31:31.104Z,13.57
2017-10-19T07:32:36.564Z,13.66
2017-10-19T07:33:43.175Z,13.81
2017-10-19T07:34:48.967Z,13.91
2017-10-19T07:35:54.799Z,14.05
2017-10-19T07:37:00.624Z,14.18
2017-10-19T07:38:06.408Z,14.33
2017-10-19T07:39:12.993Z,14.46
2017-10-19T07:40:18.779Z,14.58
2017-10-19T07:41:24.588Z,14.76
2017-10-19T07:42:30.439Z,15.03
2017-10-19T07:43:36.232Z,15.39
2017-10-19T07:44:42.016Z,15.75
2017-10-19T07:46:11.263Z,16.19
2017-10-19T07:47:20.110Z,16.76
2017-10-19T07:48:26.130Z,17.23
2017-10-19T07:49:32.692Z,17.67
2017-10-19T07:50:39.247Z,18.04
2017-10-19T07:51:44.692Z,18.39
2017-10-19T07:52:51.246Z,18.64
2017-10-19T07:53:57.692Z,18.93
2017-10-19T07:55:03.468Z,19.40
2017-10-19T07:56:09.269Z,19.68
2017-10-19T07:57:15.056Z,20.01
2017-10-19T07:58:20.853Z,20.33
2017-10-19T07:59:26.664Z,20.57
2017-10-19T08:00:32.511Z,20.66
2017-10-19T08:01:38.291Z,20.89
2017-10-19T08:02:44.068Z,21.12
2017-10-19T08:03:50.622Z,21.46
2017-10-19T08:04:57.189Z,21.74
2017-10-19T08:06:03.825Z,21.90
2017-10-19T08:07:09.422Z,22.08
2017-10-19T08:08:15.029Z,22.24
2017-10-19T08:09:20.883Z,22.26
2017-10-19T08:10:26.692Z,22.38
2017-10-19T08:11:33.399Z,22.55
2017-10-19T08:12:39.000Z,22.65
2017-10-19T08:13:45.557Z,22.76
2017-10-19T08:14:51.340Z,22.81
2017-10-19T08:15:57.148Z,22.96
2017-10-19T08:17:03.524Z,23.17
2017-10-19T08:18:09.317Z,23.38
2017-10-19T08:19:15.089Z,23.67
2017-10-19T08:20:21.637Z,23.87
2017-10-19T08:21:27.440Z,24.08
2017-10-19T08:22:33.229Z,24.26
2017-10-19T08:23:39.104Z,24.24
2017-10-19T08:24:44.878Z,24.42
2017-10-19T08:25:50.656Z,24.38
2017-10-19T08:26:57.061Z,24.57
2017-10-19T08:28:02.852Z,24.75
2017-10-19T08:29:09.231Z,24.80
2017-10-19T08:30:15.782Z,24.90
2017-10-19T08:31:22.331Z,24.84
2017-10-19T08:32:28.183Z,24.96
2017-10-19T08:33:34.721Z,25.17
2017-10-19T08:34:41.265Z,25.23
2017-10-19T08:35:47.055Z,25.30
2017-10-19T08:36:53.608Z,25.20
2017-10-19T08:38:00.184Z,25.08
2017-10-19T08:39:05.619Z,24.98
2017-10-19T08:40:11.399Z,25.17
2017-10-19T08:41:17.185Z,25.15
2017-10-19T08:42:23.740Z,25.17
2017-10-19T08:43:30.134Z,25.41
2017-10-19T08:44:35.909Z,25.54
2017-10-19T08:45:41.685Z,25.56
2017-10-19T08:46:48.239Z,25.49
2017-10-19T08:47:54.785Z,25.48
2017-10-19T08:49:00.601Z,25.56
2017-10-19T08:50:06.381Z,25.55
2017-10-19T08:51:12.168Z,25.74
2017-10-19T08:52:17.938Z,25.85
2017-10-19T08:53:23.720Z,25.86
2017-10-19T08:54:30.302Z,26.04
2017-10-19T08:55:36.094Z,26.21
2017-10-19T08:56:41.880Z,26.00
2017-10-19T08:57:47.727Z,26.12
2017-10-19T08:58:53.516Z,26.22
2017-10-19T08:59:59.348Z,26.47
2017-10-19T09:01:05.165Z,26.60
2017-10-19T09:02:10.950Z,26.77
2017-10-19T09:03:16.555Z,26.84
2017-10-19T09:04:22.339Z,26.89
2017-10-19T09:05:28.154Z,26.54
2017-10-19T09:06:33.939Z,26.34
2017-10-19T09:07:39.723Z,26.47
2017-10-19T09:08:45.509Z,26.50
2017-10-19T09:09:51.285Z,26.51
2017-10-19T09:10:57.083Z,26.62
2017-10-19T09:12:02.885Z,26.64
2017-10-19T09:13:08.668Z,26.90
2017-10-19T09:14:15.963Z,27.11
2017-10-19T09:15:22.511Z,27.13
2017-10-19T09:16:28.315Z,26.76
2017-10-19T09:17:34.097Z,26.60
2017-10-19T09:18:39.884Z,26.55
2017-10-19T09:19:45.658Z,26.41
2017-10-19T09:20:51.449Z,26.43
2017-10-19T09:21:57.261Z,26.50
2017-10-19T09:23:03.051Z,26.43
2017-10-19T09:24:08.910Z,26.78
2017-10-19T09:25:14.518Z,26.81
2017-10-19T09:26:20.344Z,26.92
2017-10-19T09:27:26.236Z,27.07
2017-10-19T09:28:32.017Z,27.14
2017-10-19T09:29:37.819Z,27.15
2017-10-19T09:30:43.599Z,27.13
2017-10-19T09:31:49.381Z,27.15
2017-10-19T09:32:55.200Z,27.00
2017-10-19T09:34:00.980Z,26.97
2017-10-19T09:35:06.751Z,27.10
2017-10-19T09:36:12.550Z,26.88
2017-10-19T09:37:18.324Z,27.06
2017-10-19T09:38:24.179Z,27.09
2017-10-19T09:39:29.790Z,27.18
2017-10-19T09:40:35.596Z,27.30
2017-10-19T09:41:42.148Z,27.28
2017-10-19T09:42:49.260Z,27.25
2017-10-19T09:43:55.106Z,27.09
2017-10-19T09:45:00.955Z,26.74
2017-10-19T09:46:06.743Z,26.65
2017-10-19T09:47:12.528Z,26.48
2017-10-19T09:48:18.132Z,26.55
2017-10-19T09:49:24.699Z,26.76
2017-10-19T09:50:31.244Z,26.82
2017-10-19T09:51:37.028Z,26.90
2017-10-19T09:52:42.963Z,26.68
2017-10-19T09:53:49.744Z,26.56
2017-10-19T09:54:55.556Z,26.54
2017-10-19T09:56:02.138Z,26.52
2017-10-19T09:57:07.918Z,26.58
2017-10-19T09:58:13.729Z,26.52
2017-10-19T09:59:19.517Z,26.52
2017-10-19T10:00:25.334Z,26.44
2017-10-19T10:01:31.116Z,26.45
2017-10-19T10:02:36.902Z,26.17
2017-10-19T10:03:42.681Z,25.99
2017-10-19T10:04:48.466Z,25.80
2017-10-19T10:05:55.038Z,25.62
2017-10-19T10:07:00.816Z,25.66
2017-10-19T10:08:06.595Z,25.51
2017-10-19T10:09:12.635Z,25.30
2017-10-19T10:10:18.419Z,25.26
2017-10-19T10:11:24.227Z,25.23
2017-10-19T10:12:30.034Z,25.21
2017-10-19T10:13:35.833Z,25.22
2017-10-19T10:14:42.379Z,25.03
2017-10-19T10:15:48.925Z,24.94
2017-10-19T10:16:54.738Z,24.94
2017-10-19T10:18:00.524Z,24.97
2017-10-19T10:19:07.092Z,25.13
2017-10-19T10:20:12.893Z,25.22
2017-10-19T10:21:18.678Z,25.28
2017-10-19T10:22:25.271Z,25.39
2017-10-19T10:23:31.058Z,25.42
2017-10-19T10:24:38.454Z,25.46
2017-10-19T10:25:45.003Z,25.39
2017-10-19T10:26:50.794Z,25.35
2017-10-19T10:27:56.626Z,25.33
2017-10-19T10:29:02.434Z,25.31
2017-10-19T10:30:09.030Z,25.21
2017-10-19T10:31:14.872Z,24.96
2017-10-19T10:32:20.701Z,24.76
2017-10-19T10:33:26.559Z,24.58
2017-10-19T10:34:32.336Z,24.38
2017-10-19T10:35:38.140Z,24.31
2017-10-19T10:36:43.937Z,24.30
2017-10-19T10:37:49.730Z,24.25
2017-10-19T10:38:55.546Z,24.36
2017-10-19T10:40:02.117Z,24.26
2017-10-19T10:41:07.913Z,24.16
2017-10-19T10:42:13.755Z,24.11
2017-10-19T10:43:19.538Z,23.99
2017-10-19T10:44:26.131Z,23.78
2017-10-19T10:45:31.912Z,23.48
2017-10-19T10:46:38.485Z,23.33
2017-10-19T10:47:45.044Z,23.29
2017-10-19T10:48:50.847Z,23.20
2017-10-19T10:49:56.321Z,23.26
2017-10-19T10:51:01.988Z,23.25
2017-10-19T10:52:07.157Z,23.15
2017-10-19T10:53:12.975Z,23.03
2017-10-19T10:54:18.765Z,22.95
2017-10-19T10:55:24.576Z,22.82
2017-10-19T10:56:30.189Z,22.66
2017-10-19T10:57:35.998Z,22.62
2017-10-19T10:58:41.808Z,22.38
2017-10-19T10:59:47.686Z,22.34
2017-10-19T11:00:54.307Z,22.37
2017-10-19T11:02:00.087Z,22.35
2017-10-19T11:03:05.881Z,22.35
2017-10-19T11:04:11.715Z,22.30
2017-10-19T11:05:17.501Z,22.25
2017-10-19T11:06:23.321Z,22.25
2017-10-19T11:07:29.107Z,22.27
2017-10-19T11:08:35.670Z,22.29
2017-10-19T11:09:42.061Z,22.20
2017-10-19T11:10:47.666Z,22.13
2017-10-19T11:11:54.247Z,22.09
2017-10-19T11:13:00.042Z,22.08
2017-10-19T11:14:05.859Z,22.10
2017-10-19T11:15:11.651Z,22.03
2017-10-19T11:16:18.208Z,22.05
2017-10-19T11:17:24.805Z,22.09
2017-10-19T11:18:30.624Z,21.98
2017-10-19T11:19:37.193Z,22.00
2017-10-19T11:20:43.743Z,21.92
2017-10-19T11:21:50.294Z,22.01
2017-10-19T11:22:56.170Z,22.05
2017-10-19T11:24:01.969Z,21.96
2017-10-19T11:25:07.757Z,22.03
2017-10-19T11:26:13.832Z,22.03
2017-10-19T11:27:19.628Z,22.01
2017-10-19T11:28:26.214Z,21.99
2017-10-19T11:29:32.010Z,21.95
2017-10-19T11:30:37.794Z,21.88
2017-10-19T11:31:43.585Z,22.04
2017-10-19T11:32:49.371Z,22.09
2017-10-19T11:33:55.196Z,22.02
2017-10-19T11:35:01.566Z,22.01
2017-10-19T11:36:08.128Z,22.06
2017-10-19T11:37:13.911Z,22.07
2017-10-19T11:38:19.709Z,22.09
2017-10-19T11:39:25.533Z,22.02
2017-10-19T11:40:32.090Z,22.10
2017-10-19T11:41:37.881Z,22.11
2017-10-19T11:42:43.679Z,21.99
2017-10-19T11:43:50.230Z,21.98
2017-10-19T11:44:56.077Z,21.99
2017-10-19T11:46:02.634Z,21.98
2017-10-19T11:47:09.933Z,21.99
2017-10-19T11:48:15.727Z,22.01
2017-10-19T11:49:21.232Z,21.97
2017-10-19T11:50:27.049Z,21.86
2017-10-19T11:51:33.594Z,21.79
2017-10-19T11:52:39.394Z,21.78
2017-10-19T11:53:44.972Z,21.83
2017-10-19T11:54:50.881Z,21.83
2017-10-19T11:55:56.695Z,21.87
2017-10-19T11:57:02.492Z,22.01
2017-10-19T11:58:08.376Z,22.04
2017-10-19T11:59:14.164Z,22.04
2017-10-19T12:00:19.782Z,22.01
2017-10-19T12:01:25.592Z,21.93
2017-10-19T12:02:32.153Z,21.93
2017-10-19T12:03:38.720Z,21.94
2017-10-19T12:04:44.518Z,21.96
2017-10-19T12:05:50.300Z,21.94
2017-10-19T12:06:56.878Z,22.02
2017-10-19T12:08:02.682Z,22.02
2017-10-19T12:09:09.234Z,22.08
2017-10-19T12:10:15.031Z,22.16
2017-10-19T12:11:20.866Z,22.27
2017-10-19T12:12:26.690Z,22.26
2017-10-19T12:13:33.240Z,22.22
2017-10-19T12:14:39.796Z,22.11
2017-10-19T12:15:45.587Z,22.10
2017-10-19T12:16:51.413Z,22.13
2017-10-19T12:17:57.227Z,22.20
2017-10-19T12:19:03.775Z,22.12
2017-10-19T12:20:09.573Z,22.22
2017-10-19T12:21:15.356Z,22.29
2017-10-19T12:22:21.907Z,22.29
2017-10-19T12:23:27.756Z,22.26
2017-10-19T12:24:33.548Z,22.25
2017-10-19T12:25:40.092Z,22.32
2017-10-19T12:26:46.643Z,22.42
2017-10-19T12:27:53.183Z,22.46
2017-10-19T12:28:58.985Z,22.43
2017-10-19T12:30:04.762Z,22.50
2017-10-19T12:31:10.527Z,22.51
2017-10-19T12:32:16.301Z,22.59
2017-10-19T12:33:22.073Z,22.61
2017-10-19T12:34:27.950Z,22.60
2017-10-19T12:35:33.724Z,22.61
2017-10-19T12:36:39.487Z,22.67
2017-10-19T12:37:45.296Z,22.60
2017-10-19T12:38:51.839Z,22.55
2017-10-19T12:39:57.636Z,22.67
2017-10-19T12:41:03.395Z,22.71
2017-10-19T12:42:09.164Z,22.72
2017-10-19T12:43:14.933Z,22.71
2017-10-19T12:44:20.712Z,22.82
2017-10-19T12:45:26.510Z,22.80
2017-10-19T12:46:33.049Z,22.81
2017-10-19T12:48:47.492Z,22.93
2017-10-19T12:49:54.009Z,22.88
2017-10-19T12:50:59.793Z,22.96
2017-10-19T12:52:06.352Z,22.99
2017-10-19T12:53:12.864Z,23.02
2017-10-19T12:54:18.617Z,23.01
2017-10-19T12:55:24.371Z,22.98
2017-10-19T12:56:30.172Z,23.00
2017-10-19T12:57:35.917Z,23.08
2017-10-19T12:58:41.553Z,23.08
2017-10-19T12:59:47.298Z,23.06
2017-10-19T13:00:53.072Z,23.10
2017-10-19T13:01:59.098Z,23.20
2017-10-19T13:03:04.837Z,23.27
2017-10-19T13:04:10.601Z,23.25
2017-10-19T13:05:16.355Z,23.22
2017-10-19T13:06:22.105Z,23.25
2017-10-19T13:07:27.888Z,23.19
2017-10-19T13:08:33.637Z,23.26
2017-10-19T13:09:39.439Z,23.36
2017-10-19T13:10:45.017Z,23.43
2017-10-19T13:11:50.783Z,23.45
2017-10-19T13:12:56.559Z,23.54
2017-10-19T13:14:03.090Z,23.49
2017-10-19T13:15:08.851Z,23.48
2017-10-19T13:16:14.421Z,23.52
2017-10-19T13:17:20.187Z,23.57
2017-10-19T13:18:25.976Z,23.46
2017-10-19T13:19:32.492Z,23.36
2017-10-19T13:20:38.246Z,23.38
2017-10-19T13:21:43.992Z,23.50
2017-10-19T13:22:49.761Z,23.48
2017-10-19T13:23:55.546Z,23.48
2017-10-19T13:25:01.290Z,23.55
2017-10-19T13:26:07.033Z,23.67
2017-10-19T13:27:12.768Z,23.78
2017-10-19T13:28:18.521Z,23.74
2017-10-19T13:29:24.307Z,23.74
2017-10-19T13:30:30.048Z,23.67
2017-10-19T13:31:35.820Z,23.68
2017-10-19T13:32:41.572Z,23.57
2017-10-19T13:33:47.307Z,23.54
2017-10-19T13:34:53.089Z,23.59
2017-10-19T13:35:58.845Z,23.67
2017-10-19T13:37:04.592Z,23.91
2017-10-19T13:38:10.331Z,23.94
2017-10-19T13:39:16.106Z,23.97
2017-10-19T13:40:21.888Z,23.86
2017-10-19T13:41:27.654Z,23.89
2017-10-19T13:42:34.909Z,23.89
2017-10-19T13:43:40.669Z,23.84
2017-10-19T13:44:47.985Z,23.90
2017-10-19T13:45:54.537Z,23.85
2017-10-19T13:47:01.054Z,23.73
2017-10-19T13:48:06.805Z,23.58
2017-10-19T13:49:12.573Z,23.57
2017-10-19T13:50:19.148Z,23.52
2017-10-19T13:51:24.928Z,23.46
2017-10-19T13:52:30.685Z,23.46
2017-10-19T13:53:36.483Z,23.39
2017-10-19T13:54:42.238Z,23.35
2017-10-19T13:55:47.985Z,23.37
2017-10-19T13:56:53.777Z,23.37
2017-10-19T13:58:00.360Z,23.48
2017-10-19T13:59:06.124Z,23.56
2017-10-19T14:00:11.888Z,23.60
2017-10-19T14:01:17.640Z,23.57
2017-10-19T14:02:23.422Z,23.54
2017-10-19T14:03:29.173Z,23.62
2017-10-19T14:04:34.931Z,23.66
2017-10-19T14:05:40.677Z,23.66
2017-10-19T14:06:46.446Z,23.61
2017-10-19T14:07:52.233Z,23.59
2017-10-19T14:08:57.981Z,23.63
2017-10-19T14:10:03.745Z,23.64
2017-10-19T14:11:09.486Z,23.71
2017-10-19T14:12:15.270Z,23.74